sensor_id;sensor_type;location;lat;lon;timestamp;pressure;altitude;pressure_sealevel;temperature;humidity
81680;BME280;74989;52.210;5.148;2024-03-25T00:01:39;100817.81;;;5.33;84.10
81680;BME280;74989;52.210;5.148;2024-03-25T00:04:05;100817.25;;;5.25;84.63
81680;BME280;74989;52.210;5.148;2024-03-25T00:06:31;100820.63;;;5.38;85.95
81680;BME280;74989;52.210;5.148;2024-03-25T00:09:01;100821.00;;;5.42;82.72
81680;BME280;74989;52.210;5.148;2024-03-25T00:11:26;100825.53;;;5.15;83.43
81680;BME280;74989;52.210;5.148;2024-03-25T00:13:53;100830.44;;;4.92;83.64
81680;BME280;74989;52.210;5.148;2024-03-25T00:16:19;100828.22;;;4.69;84.57
81680;BME280;74989;52.210;5.148;2024-03-25T00:18:45;100836.69;;;4.58;85.35
81680;BME280;74989;52.210;5.148;2024-03-25T00:21:11;100830.25;;;4.54;86.08
81680;BME280;74989;52.210;5.148;2024-03-25T00:23:38;100828.22;;;4.56;87.40
81680;BME280;74989;52.210;5.148;2024-03-25T00:26:05;100823.38;;;4.60;87.10
81680;BME280;74989;52.210;5.148;2024-03-25T00:28:31;100812.75;;;4.61;87.29
81680;BME280;74989;52.210;5.148;2024-03-25T00:30:57;100813.72;;;4.60;86.73
81680;BME280;74989;52.210;5.148;2024-03-25T00:33:24;100804.88;;;4.61;87.15
81680;BME280;74989;52.210;5.148;2024-03-25T00:35:49;100802.06;;;4.56;86.41
81680;BME280;74989;52.210;5.148;2024-03-25T00:38:16;100797.81;;;4.55;86.32
81680;BME280;74989;52.210;5.148;2024-03-25T00:40:42;100799.84;;;4.53;86.34
81680;BME280;74989;52.210;5.148;2024-03-25T00:43:10;100799.47;;;4.50;86.74
81680;BME280;74989;52.210;5.148;2024-03-25T00:45:35;100797.03;;;4.48;86.29
81680;BME280;74989;52.210;5.148;2024-03-25T00:48:02;100800.69;;;4.41;85.77
81680;BME280;74989;52.210;5.148;2024-03-25T00:50:29;100790.00;;;4.23;85.87
81680;BME280;74989;52.210;5.148;2024-03-25T00:52:56;100807.09;;;4.18;85.93
81680;BME280;74989;52.210;5.148;2024-03-25T00:55:22;100804.47;;;4.12;86.50
81680;BME280;74989;52.210;5.148;2024-03-25T00:57:48;100807.25;;;3.97;86.28
81680;BME280;74989;52.210;5.148;2024-03-25T01:00:16;100807.44;;;3.83;87.01
81680;BME280;74989;52.210;5.148;2024-03-25T01:02:43;100815.88;;;3.85;87.43
81680;BME280;74989;52.210;5.148;2024-03-25T01:05:08;100805.84;;;3.82;87.25
81680;BME280;74989;52.210;5.148;2024-03-25T01:07:35;100806.22;;;3.79;87.42
81680;BME280;74989;52.210;5.148;2024-03-25T01:10:01;100825.34;;;3.79;88.17
81680;BME280;74989;52.210;5.148;2024-03-25T01:12:27;100801.38;;;3.69;88.19
81680;BME280;74989;52.210;5.148;2024-03-25T01:14:53;100821.53;;;3.88;88.91
81680;BME280;74989;52.210;5.148;2024-03-25T01:17:21;100818.31;;;3.99;88.72
81680;BME280;74989;52.210;5.148;2024-03-25T01:19:46;100826.97;;;4.00;88.33
81680;BME280;74989;52.210;5.148;2024-03-25T01:22:13;100824.38;;;4.00;87.96
81680;BME280;74989;52.210;5.148;2024-03-25T01:24:39;100818.31;;;3.99;88.09
81680;BME280;74989;52.210;5.148;2024-03-25T01:27:05;100815.91;;;3.98;87.96
81680;BME280;74989;52.210;5.148;2024-03-25T01:29:31;100828.00;;;4.05;87.87
81680;BME280;74989;52.210;5.148;2024-03-25T01:31:58;100823.56;;;4.06;87.99
81680;BME280;74989;52.210;5.148;2024-03-25T01:34:26;100821.75;;;4.06;87.65
81680;BME280;74989;52.210;5.148;2024-03-25T01:36:52;100825.78;;;4.02;87.04
81680;BME280;74989;52.210;5.148;2024-03-25T01:39:18;100823.75;;;3.98;87.17
81680;BME280;74989;52.210;5.148;2024-03-25T01:41:44;100828.78;;;3.93;87.04
81680;BME280;74989;52.210;5.148;2024-03-25T01:44:10;100820.13;;;3.86;87.58
81680;BME280;74989;52.210;5.148;2024-03-25T01:46:37;100816.28;;;3.82;87.18
81680;BME280;74989;52.210;5.148;2024-03-25T01:49:04;100816.25;;;3.75;87.03
81680;BME280;74989;52.210;5.148;2024-03-25T01:51:32;100811.22;;;3.67;87.13
81680;BME280;74989;52.210;5.148;2024-03-25T01:53:59;100824.28;;;3.61;87.49
81680;BME280;74989;52.210;5.148;2024-03-25T01:56:27;100830.25;;;3.55;87.43
81680;BME280;74989;52.210;5.148;2024-03-25T01:58:54;100825.00;;;3.48;87.31
81680;BME280;74989;52.210;5.148;2024-03-25T02:01:21;100831.03;;;3.42;87.56
81680;BME280;74989;52.210;5.148;2024-03-25T02:03:47;100823.19;;;3.42;88.03
81680;BME280;74989;52.210;5.148;2024-03-25T02:06:16;100820.75;;;3.40;88.05
81680;BME280;74989;52.210;5.148;2024-03-25T02:08:44;100824.38;;;3.39;86.58
81680;BME280;74989;52.210;5.148;2024-03-25T02:11:10;100836.41;;;3.34;87.21
81680;BME280;74989;52.210;5.148;2024-03-25T02:13:38;100833.34;;;3.24;87.03
81680;BME280;74989;52.210;5.148;2024-03-25T02:16:05;100837.44;;;3.05;86.72
81680;BME280;74989;52.210;5.148;2024-03-25T02:18:31;100837.03;;;3.02;86.92
81680;BME280;74989;52.210;5.148;2024-03-25T02:20:59;100837.75;;;2.89;87.73
81680;BME280;74989;52.210;5.148;2024-03-25T02:23:25;100837.47;;;2.77;87.40
81680;BME280;74989;52.210;5.148;2024-03-25T02:25:53;100826.56;;;2.67;87.64
81680;BME280;74989;52.210;5.148;2024-03-25T02:28:19;100834.22;;;2.69;87.68
81680;BME280;74989;52.210;5.148;2024-03-25T02:30:46;100834.25;;;2.75;89.62
81680;BME280;74989;52.210;5.148;2024-03-25T02:33:12;100838.81;;;2.95;90.43
81680;BME280;74989;52.210;5.148;2024-03-25T02:35:40;100837.66;;;3.04;89.02
81680;BME280;74989;52.210;5.148;2024-03-25T02:38:06;100831.03;;;3.08;88.78
81680;BME280;74989;52.210;5.148;2024-03-25T02:40:34;100834.25;;;3.10;87.90
81680;BME280;74989;52.210;5.148;2024-03-25T02:43:01;100827.44;;;3.09;88.66
81680;BME280;74989;52.210;5.148;2024-03-25T02:45:28;100831.66;;;3.10;87.82
81680;BME280;74989;52.210;5.148;2024-03-25T02:47:54;100825.81;;;3.08;88.10
81680;BME280;74989;52.210;5.148;2024-03-25T02:50:21;100818.78;;;3.02;87.63
81680;BME280;74989;52.210;5.148;2024-03-25T02:52:47;100823.56;;;2.98;87.66
81680;BME280;74989;52.210;5.148;2024-03-25T02:55:13;100823.53;;;2.92;87.18
81680;BME280;74989;52.210;5.148;2024-03-25T02:57:39;100822.91;;;2.90;88.47
81680;BME280;74989;52.210;5.148;2024-03-25T03:00:08;100823.09;;;2.88;87.47
81680;BME280;74989;52.210;5.148;2024-03-25T03:02:34;100820.22;;;2.76;87.05
81680;BME280;74989;52.210;5.148;2024-03-25T03:05:01;100803.06;;;2.67;88.16
81680;BME280;74989;52.210;5.148;2024-03-25T03:07:29;100820.91;;;2.92;88.84
81680;BME280;74989;52.210;5.148;2024-03-25T03:09:55;100805.44;;;2.90;87.21
81680;BME280;74989;52.210;5.148;2024-03-25T03:12:21;100796.84;;;2.96;87.50
81680;BME280;74989;52.210;5.148;2024-03-25T03:14:48;100806.66;;;2.94;86.37
81680;BME280;74989;52.210;5.148;2024-03-25T03:17:15;100787.06;;;2.70;85.72
81680;BME280;74989;52.210;5.148;2024-03-25T03:19:41;100809.91;;;2.68;85.87
81680;BME280;74989;52.210;5.148;2024-03-25T03:22:07;100802.34;;;2.46;85.71
81680;BME280;74989;52.210;5.148;2024-03-25T03:24:33;100794.97;;;2.28;86.24
81680;BME280;74989;52.210;5.148;2024-03-25T03:26:59;100799.13;;;2.44;88.42
81680;BME280;74989;52.210;5.148;2024-03-25T03:29:26;100805.59;;;2.82;88.16
81680;BME280;74989;52.210;5.148;2024-03-25T03:31:51;100794.75;;;3.19;87.61
81680;BME280;74989;52.210;5.148;2024-03-25T03:34:19;100797.06;;;3.42;85.13
81680;BME280;74989;52.210;5.148;2024-03-25T03:36:45;100789.94;;;3.16;82.99
81680;BME280;74989;52.210;5.148;2024-03-25T03:39:11;100805.03;;;2.93;85.17
81680;BME280;74989;52.210;5.148;2024-03-25T03:41:37;100800.00;;;2.85;86.30
81680;BME280;74989;52.210;5.148;2024-03-25T03:44:04;100790.66;;;2.69;85.10
81680;BME280;74989;52.210;5.148;2024-03-25T03:46:29;100795.91;;;2.69;86.46
81680;BME280;74989;52.210;5.148;2024-03-25T03:48:56;100795.69;;;2.71;86.78
81680;BME280;74989;52.210;5.148;2024-03-25T03:51:23;100793.59;;;2.88;86.89
81680;BME280;74989;52.210;5.148;2024-03-25T03:53:49;100787.47;;;3.08;86.34
81680;BME280;74989;52.210;5.148;2024-03-25T03:56:15;100783.56;;;3.32;86.44
81680;BME280;74989;52.210;5.148;2024-03-25T03:58:43;100781.66;;;3.67;84.59
81680;BME280;74989;52.210;5.148;2024-03-25T04:01:14;100761.09;;;3.44;79.25
81680;BME280;74989;52.210;5.148;2024-03-25T04:03:41;100786.88;;;3.13;80.89
81680;BME280;74989;52.210;5.148;2024-03-25T04:06:10;100785.50;;;2.76;82.74
81680;BME280;74989;52.210;5.148;2024-03-25T04:08:39;100779.47;;;2.48;83.25
81680;BME280;74989;52.210;5.148;2024-03-25T04:11:06;100760.53;;;2.12;84.80
81680;BME280;74989;52.210;5.148;2024-03-25T04:13:33;100788.16;;;2.27;86.68
81680;BME280;74989;52.210;5.148;2024-03-25T04:16:03;100784.00;;;2.12;84.46
81680;BME280;74989;52.210;5.148;2024-03-25T04:18:29;100794.09;;;2.00;84.82
81680;BME280;74989;52.210;5.148;2024-03-25T04:20:56;100792.88;;;1.96;86.14
81680;BME280;74989;52.210;5.148;2024-03-25T04:23:22;100788.53;;;2.24;87.53
81680;BME280;74989;52.210;5.148;2024-03-25T04:25:50;100782.94;;;2.27;85.80
81680;BME280;74989;52.210;5.148;2024-03-25T04:28:16;100780.41;;;2.13;83.54
81680;BME280;74989;52.210;5.148;2024-03-25T04:30:42;100795.69;;;2.16;86.13
81680;BME280;74989;52.210;5.148;2024-03-25T04:33:08;100787.38;;;2.33;86.82
81680;BME280;74989;52.210;5.148;2024-03-25T04:35:35;100761.94;;;2.35;86.04
81680;BME280;74989;52.210;5.148;2024-03-25T04:38:00;100788.28;;;2.74;85.19
81680;BME280;74989;52.210;5.148;2024-03-25T04:40:26;100788.19;;;2.96;84.72
81680;BME280;74989;52.210;5.148;2024-03-25T04:42:54;100775.63;;;3.12;84.38
81680;BME280;74989;52.210;5.148;2024-03-25T04:45:20;100787.38;;;3.29;82.76
81680;BME280;74989;52.210;5.148;2024-03-25T04:47:46;100782.28;;;3.15;80.51
81680;BME280;74989;52.210;5.148;2024-03-25T04:50:11;100789.34;;;3.21;83.64
81680;BME280;74989;52.210;5.148;2024-03-25T04:52:37;100784.31;;;3.19;81.79
81680;BME280;74989;52.210;5.148;2024-03-25T04:55:04;100784.91;;;3.21;83.63
81680;BME280;74989;52.210;5.148;2024-03-25T04:57:29;100787.50;;;3.15;83.01
81680;BME280;74989;52.210;5.148;2024-03-25T04:59:57;100786.63;;;3.01;83.71
81680;BME280;74989;52.210;5.148;2024-03-25T05:02:22;100798.78;;;2.81;82.96
81680;BME280;74989;52.210;5.148;2024-03-25T05:04:48;100801.03;;;2.63;83.82
81680;BME280;74989;52.210;5.148;2024-03-25T05:07:14;100804.75;;;2.47;84.06
81680;BME280;74989;52.210;5.148;2024-03-25T05:09:40;100796.59;;;2.29;83.80
81680;BME280;74989;52.210;5.148;2024-03-25T05:12:06;100803.16;;;2.25;86.06
81680;BME280;74989;52.210;5.148;2024-03-25T05:14:31;100795.97;;;2.27;85.58
81680;BME280;74989;52.210;5.148;2024-03-25T05:16:58;100797.44;;;2.36;86.49
81680;BME280;74989;52.210;5.148;2024-03-25T05:19:24;100803.88;;;2.40;85.85
81680;BME280;74989;52.210;5.148;2024-03-25T05:21:50;100805.72;;;2.46;86.15
81680;BME280;74989;52.210;5.148;2024-03-25T05:24:16;100811.69;;;2.61;87.02
81680;BME280;74989;52.210;5.148;2024-03-25T05:26:41;100816.28;;;2.94;87.06
81680;BME280;74989;52.210;5.148;2024-03-25T05:29:07;100814.91;;;3.32;85.87
81680;BME280;74989;52.210;5.148;2024-03-25T05:31:35;100809.13;;;3.43;85.21
81680;BME280;74989;52.210;5.148;2024-03-25T05:34:02;100812.66;;;3.76;84.97
81680;BME280;74989;52.210;5.148;2024-03-25T05:36:28;100814.06;;;3.85;81.13
81680;BME280;74989;52.210;5.148;2024-03-25T05:38:53;100817.84;;;3.63;82.89
81680;BME280;74989;52.210;5.148;2024-03-25T05:41:19;100810.66;;;3.31;82.72
81680;BME280;74989;52.210;5.148;2024-03-25T05:43:45;100810.38;;;3.13;83.14
81680;BME280;74989;52.210;5.148;2024-03-25T05:46:10;100812.53;;;3.03;83.91
81680;BME280;74989;52.210;5.148;2024-03-25T05:48:36;100810.09;;;2.95;83.16
81680;BME280;74989;52.210;5.148;2024-03-25T05:51:04;100816.47;;;2.86;84.60
81680;BME280;74989;52.210;5.148;2024-03-25T05:53:31;100814.25;;;2.89;84.83
81680;BME280;74989;52.210;5.148;2024-03-25T05:55:57;100808.47;;;2.94;84.40
81680;BME280;74989;52.210;5.148;2024-03-25T05:58:23;100812.94;;;3.00;84.19
81680;BME280;74989;52.210;5.148;2024-03-25T06:00:49;100809.66;;;2.91;84.42
81680;BME280;74989;52.210;5.148;2024-03-25T06:03:15;100808.09;;;2.97;85.72
81680;BME280;74989;52.210;5.148;2024-03-25T06:05:40;100802.75;;;3.11;85.83
81680;BME280;74989;52.210;5.148;2024-03-25T06:08:08;100804.75;;;3.09;84.23
81680;BME280;74989;52.210;5.148;2024-03-25T06:10:37;100803.78;;;3.17;83.71
81680;BME280;74989;52.210;5.148;2024-03-25T06:13:03;100797.59;;;3.24;85.09
81680;BME280;74989;52.210;5.148;2024-03-25T06:15:29;100791.03;;;3.35;85.14
81680;BME280;74989;52.210;5.148;2024-03-25T06:17:55;100789.25;;;3.48;83.16
81680;BME280;74989;52.210;5.148;2024-03-25T06:20:20;100791.09;;;3.61;82.21
81680;BME280;74989;52.210;5.148;2024-03-25T06:22:46;100789.94;;;3.77;82.77
81680;BME280;74989;52.210;5.148;2024-03-25T06:25:13;100797.44;;;4.12;81.80
81680;BME280;74989;52.210;5.148;2024-03-25T06:27:39;100783.94;;;4.42;80.66
81680;BME280;74989;52.210;5.148;2024-03-25T06:30:06;100784.44;;;5.16;79.95
81680;BME280;74989;52.210;5.148;2024-03-25T06:32:47;100789.50;;;5.55;77.60
81680;BME280;74989;52.210;5.148;2024-03-25T06:35:31;100789.75;;;6.16;77.90
81680;BME280;74989;52.210;5.148;2024-03-25T06:37:57;100781.28;;;6.63;72.45
81680;BME280;74989;52.210;5.148;2024-03-25T06:40:24;100776.28;;;6.98;72.64
81680;BME280;74989;52.210;5.148;2024-03-25T06:42:50;100780.88;;;7.69;73.10
81680;BME280;74989;52.210;5.148;2024-03-25T06:45:16;100771.81;;;7.94;68.29
81680;BME280;74989;52.210;5.148;2024-03-25T06:47:42;100769.03;;;8.54;65.87
81680;BME280;74989;52.210;5.148;2024-03-25T06:50:08;100762.72;;;8.78;67.14
81680;BME280;74989;52.210;5.148;2024-03-25T06:52:33;100776.13;;;8.88;65.29
81680;BME280;74989;52.210;5.148;2024-03-25T06:54:59;100775.28;;;9.50;69.50
81680;BME280;74989;52.210;5.148;2024-03-25T06:57:26;100768.47;;;9.83;64.32
81680;BME280;74989;52.210;5.148;2024-03-25T06:59:52;100774.38;;;9.73;63.77
81680;BME280;74989;52.210;5.148;2024-03-25T07:02:18;100766.50;;;10.06;63.50
81680;BME280;74989;52.210;5.148;2024-03-25T07:04:43;100773.25;;;10.14;64.17
81680;BME280;74989;52.210;5.148;2024-03-25T07:07:09;100776.84;;;10.41;63.66
81680;BME280;74989;52.210;5.148;2024-03-25T07:09:35;100766.59;;;10.61;64.31
81680;BME280;74989;52.210;5.148;2024-03-25T07:12:01;100767.75;;;10.87;64.86
81680;BME280;74989;52.210;5.148;2024-03-25T07:14:28;100762.22;;;11.10;62.50
81680;BME280;74989;52.210;5.148;2024-03-25T07:16:55;100766.91;;;11.03;63.04
81680;BME280;74989;52.210;5.148;2024-03-25T07:19:21;100779.25;;;11.19;61.52
81680;BME280;74989;52.210;5.148;2024-03-25T07:21:47;100778.25;;;11.47;61.54
81680;BME280;74989;52.210;5.148;2024-03-25T07:24:12;100779.13;;;11.31;62.53
81680;BME280;74989;52.210;5.148;2024-03-25T07:26:38;100783.22;;;11.65;64.14
81680;BME280;74989;52.210;5.148;2024-03-25T07:29:04;100779.28;;;11.94;59.89
81680;BME280;74989;52.210;5.148;2024-03-25T07:31:31;100776.66;;;12.26;59.57
81680;BME280;74989;52.210;5.148;2024-03-25T07:33:58;100774.91;;;12.41;60.83
81680;BME280;74989;52.210;5.148;2024-03-25T07:36:23;100769.09;;;12.39;62.36
81680;BME280;74989;52.210;5.148;2024-03-25T07:38:49;100781.88;;;12.53;60.47
81680;BME280;74989;52.210;5.148;2024-03-25T07:41:15;100778.31;;;12.74;60.73
81680;BME280;74989;52.210;5.148;2024-03-25T07:43:41;100761.59;;;13.15;58.85
81680;BME280;74989;52.210;5.148;2024-03-25T07:46:06;100763.50;;;13.40;58.49
81680;BME280;74989;52.210;5.148;2024-03-25T07:48:34;100777.69;;;13.81;55.94
81680;BME280;74989;52.210;5.148;2024-03-25T07:50:59;100767.59;;;13.88;59.22
81680;BME280;74989;52.210;5.148;2024-03-25T07:53:25;100779.81;;;13.89;56.31
81680;BME280;74989;52.210;5.148;2024-03-25T07:55:51;100770.53;;;14.21;59.12
81680;BME280;74989;52.210;5.148;2024-03-25T07:58:16;100780.34;;;14.61;58.86
81680;BME280;74989;52.210;5.148;2024-03-25T08:00:44;100782.19;;;14.71;55.54
81680;BME280;74989;52.210;5.148;2024-03-25T08:03:10;100783.94;;;15.15;58.79
81680;BME280;74989;52.210;5.148;2024-03-25T08:05:37;100776.59;;;15.56;53.48
81680;BME280;74989;52.210;5.148;2024-03-25T08:08:04;100785.66;;;15.50;56.04
81680;BME280;74989;52.210;5.148;2024-03-25T08:10:29;100786.44;;;15.56;52.57
81680;BME280;74989;52.210;5.148;2024-03-25T08:12:55;100792.63;;;15.36;55.73
81680;BME280;74989;52.210;5.148;2024-03-25T08:15:22;100793.81;;;15.69;54.66
81680;BME280;74989;52.210;5.148;2024-03-25T08:17:48;100796.22;;;15.70;56.20
81680;BME280;74989;52.210;5.148;2024-03-25T08:20:13;100796.00;;;16.34;50.56
81680;BME280;74989;52.210;5.148;2024-03-25T08:22:40;100793.28;;;16.73;51.58
81680;BME280;74989;52.210;5.148;2024-03-25T08:25:07;100799.81;;;16.62;50.86
81680;BME280;74989;52.210;5.148;2024-03-25T08:27:33;100797.31;;;16.37;51.28
81680;BME280;74989;52.210;5.148;2024-03-25T08:29:58;100788.16;;;16.48;51.32
81680;BME280;74989;52.210;5.148;2024-03-25T08:32:24;100784.72;;;17.18;54.17
81680;BME280;74989;52.210;5.148;2024-03-25T08:34:50;100789.91;;;17.34;46.89
81680;BME280;74989;52.210;5.148;2024-03-25T08:37:15;100793.84;;;16.94;50.81
81680;BME280;74989;52.210;5.148;2024-03-25T08:39:42;100786.28;;;17.01;50.60
81680;BME280;74989;52.210;5.148;2024-03-25T08:42:08;100785.69;;;16.85;48.69
81680;BME280;74989;52.210;5.148;2024-03-25T08:44:34;100784.72;;;16.76;49.97
81680;BME280;74989;52.210;5.148;2024-03-25T08:46:59;100787.31;;;16.81;49.02
81680;BME280;74989;52.210;5.148;2024-03-25T08:49:25;100781.56;;;17.16;49.25
81680;BME280;74989;52.210;5.148;2024-03-25T08:51:51;100784.75;;;17.79;48.66
81680;BME280;74989;52.210;5.148;2024-03-25T08:54:16;100780.38;;;18.21;46.18
81680;BME280;74989;52.210;5.148;2024-03-25T08:56:44;100763.41;;;18.12;42.02
81680;BME280;74989;52.210;5.148;2024-03-25T08:59:09;100780.22;;;18.44;42.98
81680;BME280;74989;52.210;5.148;2024-03-25T09:01:35;100788.44;;;17.83;45.91
81680;BME280;74989;52.210;5.148;2024-03-25T09:04:01;100766.22;;;18.02;44.41
81680;BME280;74989;52.210;5.148;2024-03-25T09:06:27;100768.50;;;17.57;44.10
81680;BME280;74989;52.210;5.148;2024-03-25T09:08:53;100782.25;;;17.27;45.05
81680;BME280;74989;52.210;5.148;2024-03-25T09:11:37;100775.66;;;16.96;46.11
81680;BME280;74989;52.210;5.148;2024-03-25T09:14:04;100767.91;;;16.99;45.67
81680;BME280;74989;52.210;5.148;2024-03-25T09:16:30;100763.72;;;16.88;46.79
81680;BME280;74989;52.210;5.148;2024-03-25T09:18:55;100762.88;;;16.93;45.58
81680;BME280;74989;52.210;5.148;2024-03-25T09:21:22;100772.03;;;16.87;46.46
81680;BME280;74989;52.210;5.148;2024-03-25T09:23:47;100763.69;;;17.36;46.13
81680;BME280;74989;52.210;5.148;2024-03-25T09:26:13;100766.84;;;17.61;46.75
81680;BME280;74989;52.210;5.148;2024-03-25T09:28:39;100763.47;;;17.56;44.28
81680;BME280;74989;52.210;5.148;2024-03-25T09:31:06;100762.09;;;17.16;44.40
81680;BME280;74989;52.210;5.148;2024-03-25T09:33:32;100754.53;;;17.42;44.37
81680;BME280;74989;52.210;5.148;2024-03-25T09:35:59;100743.75;;;18.03;43.47
81680;BME280;74989;52.210;5.148;2024-03-25T09:38:25;100746.94;;;16.88;44.79
81680;BME280;74989;52.210;5.148;2024-03-25T09:40:52;100755.94;;;16.39;46.88
81680;BME280;74989;52.210;5.148;2024-03-25T09:43:23;100757.47;;;15.83;46.66
81680;BME280;74989;52.210;5.148;2024-03-25T09:45:49;100758.50;;;15.43;49.39
81680;BME280;74989;52.210;5.148;2024-03-25T09:48:18;100751.16;;;15.74;48.96
81680;BME280;74989;52.210;5.148;2024-03-25T09:50:45;100747.13;;;16.39;50.39
81680;BME280;74989;52.210;5.148;2024-03-25T09:53:11;100740.13;;;17.19;49.22
81680;BME280;74989;52.210;5.148;2024-03-25T09:55:37;100736.41;;;17.76;46.25
81680;BME280;74989;52.210;5.148;2024-03-25T09:58:04;100732.44;;;18.06;45.99
81680;BME280;74989;52.210;5.148;2024-03-25T10:00:30;100737.94;;;18.60;45.83
81680;BME280;74989;52.210;5.148;2024-03-25T10:02:56;100741.72;;;18.59;42.79
81680;BME280;74989;52.210;5.148;2024-03-25T10:05:23;100729.06;;;18.32;42.91
81680;BME280;74989;52.210;5.148;2024-03-25T10:07:49;100700.13;;;18.34;42.40
81680;BME280;74989;52.210;5.148;2024-03-25T10:10:19;100703.88;;;17.88;41.10
81680;BME280;74989;52.210;5.148;2024-03-25T10:12:45;100710.50;;;17.39;44.63
81680;BME280;74989;52.210;5.148;2024-03-25T10:15:15;100708.09;;;17.56;44.26
81680;BME280;74989;52.210;5.148;2024-03-25T10:17:41;100715.53;;;18.10;45.18
81680;BME280;74989;52.210;5.148;2024-03-25T10:20:07;100712.91;;;18.24;41.53
81680;BME280;74989;52.210;5.148;2024-03-25T10:22:42;100708.22;;;18.16;41.93
81680;BME280;74989;52.210;5.148;2024-03-25T10:25:19;100713.19;;;18.36;42.28
81680;BME280;74989;52.210;5.148;2024-03-25T10:27:52;100718.13;;;18.29;40.87
81680;BME280;74989;52.210;5.148;2024-03-25T10:30:19;100712.28;;;18.13;42.73
81680;BME280;74989;52.210;5.148;2024-03-25T10:32:45;100701.16;;;18.79;41.21
81680;BME280;74989;52.210;5.148;2024-03-25T10:35:11;100691.13;;;18.44;42.38
81680;BME280;74989;52.210;5.148;2024-03-25T10:37:38;100699.16;;;18.71;41.90
81680;BME280;74989;52.210;5.148;2024-03-25T10:40:07;100690.44;;;18.93;41.43
81680;BME280;74989;52.210;5.148;2024-03-25T10:42:38;100684.66;;;18.99;39.97
81680;BME280;74989;52.210;5.148;2024-03-25T10:45:05;100686.97;;;19.28;39.82
81680;BME280;74989;52.210;5.148;2024-03-25T10:47:33;100688.88;;;19.28;39.96
81680;BME280;74989;52.210;5.148;2024-03-25T10:50:04;100682.78;;;19.00;38.46
81680;BME280;74989;52.210;5.148;2024-03-25T10:52:33;100681.06;;;19.17;38.75
81680;BME280;74989;52.210;5.148;2024-03-25T10:55:00;100666.53;;;18.96;38.52
81680;BME280;74989;52.210;5.148;2024-03-25T10:57:28;100678.13;;;19.05;39.72
81680;BME280;74989;52.210;5.148;2024-03-25T10:59:55;100682.50;;;18.74;40.45
81680;BME280;74989;52.210;5.148;2024-03-25T11:02:21;100677.88;;;19.15;40.44
81680;BME280;74989;52.210;5.148;2024-03-25T11:04:47;100673.28;;;19.30;39.23
81680;BME280;74989;52.210;5.148;2024-03-25T11:07:14;100665.09;;;19.70;40.00
81680;BME280;74989;52.210;5.148;2024-03-25T11:09:41;100668.66;;;20.32;38.21
81680;BME280;74989;52.210;5.148;2024-03-25T11:12:10;100654.63;;;21.09;35.98
81680;BME280;74989;52.210;5.148;2024-03-25T11:14:38;100637.25;;;21.23;35.00
81680;BME280;74989;52.210;5.148;2024-03-25T11:17:14;100644.81;;;21.13;34.49
81680;BME280;74989;52.210;5.148;2024-03-25T11:19:40;100663.97;;;20.16;36.68
81680;BME280;74989;52.210;5.148;2024-03-25T11:22:07;100655.47;;;19.11;39.43
81680;BME280;74989;52.210;5.148;2024-03-25T11:24:34;100649.03;;;19.12;40.67
81680;BME280;74989;52.210;5.148;2024-03-25T11:27:00;100646.00;;;20.73;38.87
81680;BME280;74989;52.210;5.148;2024-03-25T11:29:26;100638.78;;;21.50;34.91
81680;BME280;74989;52.210;5.148;2024-03-25T11:31:54;100632.69;;;22.05;32.55
81680;BME280;74989;52.210;5.148;2024-03-25T11:34:20;100637.16;;;22.68;33.63
81680;BME280;74989;52.210;5.148;2024-03-25T11:36:46;100628.25;;;23.17;32.60
81680;BME280;74989;52.210;5.148;2024-03-25T11:39:12;100618.19;;;23.47;29.05
81680;BME280;74989;52.210;5.148;2024-03-25T11:41:39;100614.56;;;23.87;32.38
81680;BME280;74989;52.210;5.148;2024-03-25T11:44:05;100607.19;;;24.09;29.00
81680;BME280;74989;52.210;5.148;2024-03-25T11:46:36;100615.31;;;23.76;29.70
81680;BME280;74989;52.210;5.148;2024-03-25T11:49:05;100605.91;;;23.82;27.69
81680;BME280;74989;52.210;5.148;2024-03-25T11:51:31;100607.59;;;23.99;29.47
81680;BME280;74989;52.210;5.148;2024-03-25T11:53:58;100596.84;;;24.23;30.24
81680;BME280;74989;52.210;5.148;2024-03-25T11:56:24;100595.13;;;24.79;29.60
81680;BME280;74989;52.210;5.148;2024-03-25T11:58:51;100594.22;;;25.14;28.20
81680;BME280;74989;52.210;5.148;2024-03-25T12:01:17;100586.75;;;24.84;29.91
81680;BME280;74989;52.210;5.148;2024-03-25T12:03:42;100583.78;;;24.49;28.93
81680;BME280;74989;52.210;5.148;2024-03-25T12:06:10;100578.28;;;24.21;29.28
81680;BME280;74989;52.210;5.148;2024-03-25T12:08:36;100584.34;;;24.06;28.66
81680;BME280;74989;52.210;5.148;2024-03-25T12:11:02;100566.91;;;24.16;30.27
81680;BME280;74989;52.210;5.148;2024-03-25T12:13:43;100573.22;;;24.08;29.65
81680;BME280;74989;52.210;5.148;2024-03-25T12:16:09;100578.13;;;23.37;28.23
81680;BME280;74989;52.210;5.148;2024-03-25T12:18:35;100569.03;;;22.58;31.02
81680;BME280;74989;52.210;5.148;2024-03-25T12:21:04;100555.81;;;22.95;30.77
81680;BME280;74989;52.210;5.148;2024-03-25T12:23:31;100557.06;;;23.63;30.71
81680;BME280;74989;52.210;5.148;2024-03-25T12:25:58;100549.44;;;24.37;30.62
81680;BME280;74989;52.210;5.148;2024-03-25T12:28:24;100548.72;;;24.77;28.00
81680;BME280;74989;52.210;5.148;2024-03-25T12:30:52;100551.69;;;23.99;26.45
81680;BME280;74989;52.210;5.148;2024-03-25T12:33:18;100554.94;;;23.68;29.05
81680;BME280;74989;52.210;5.148;2024-03-25T12:35:48;100548.34;;;24.26;27.33
81680;BME280;74989;52.210;5.148;2024-03-25T12:38:25;100533.69;;;23.34;26.93
81680;BME280;74989;52.210;5.148;2024-03-25T12:40:53;100553.84;;;23.37;28.09
81680;BME280;74989;52.210;5.148;2024-03-25T12:43:19;100547.69;;;23.15;29.04
81680;BME280;74989;52.210;5.148;2024-03-25T12:45:44;100550.50;;;23.19;27.97
81680;BME280;74989;52.210;5.148;2024-03-25T12:48:10;100547.81;;;23.40;25.76
81680;BME280;74989;52.210;5.148;2024-03-25T12:50:36;100531.66;;;23.31;27.24
81680;BME280;74989;52.210;5.148;2024-03-25T12:53:02;100521.53;;;23.16;28.67